Time;durP1;ratioP1;P1;durP2;ratioP2;P2;SDS_P1;SDS_P2;PMS_P1;PMS_P2;Temp;Humidity;BMP_temperature;BMP_pressure;BME280_temperature;BME280_humidity;BME280_pressure;Samples;Min_cycle;Max_cycle;Signal;HPM_P1;HPM_P2
2020/12/24 00:00:45;;;;;;;;;;;;;;;6.17;99.81;92667.97;1063619;56;20649;-85
2020/12/24 00:01:46;;;;;;;;;;;;;;;6.24;99.23;92660.69;1063762;56;20173;-86
2020/12/24 00:02:46;;;;;;;;;;;;;;;6.24;99.71;92655.38;1068026;55;20184;-85
2020/12/24 00:03:47;;;;;;;;;;;;;;;6.17;100.00;92658.09;1065729;55;20672;-87
2020/12/24 00:04:47;;;;;;;;;;;;;;;6.16;100.00;92661.91;1065824;55;20165;-86
2020/12/24 00:05:48;;;;;;;;;;;;;;;6.14;100.00;92658.16;1070455;55;20264;-86
2020/12/24 00:06:48;;;;;;;;;;;;;;;6.15;100.00;92651.72;1070230;55;20196;-85
2020/12/24 00:07:48;;;;;;;;;;;;;;;6.14;100.00;92650.94;1067743;55;20960;-84
2020/12/24 00:08:49;;;;;;;;;;;;;;;6.14;100.00;92656.25;1063393;56;20150;-85
2020/12/24 00:09:50;;;;;;;;;;;;;;;6.11;100.00;92648.34;1065765;55;20185;-86
2020/12/24 00:10:50;;;;;;;;;;;;;;;6.18;100.00;92642.94;1065712;55;20254;-84
2020/12/24 00:11:51;;;;;;;;;;;;;;;6.18;100.00;92645.59;1065706;55;20157;-88
2020/12/24 00:12:52;;;;;;;;;;;;;;;6.08;100.00;92649.12;1065642;55;20177;-85
2020/12/24 00:13:52;;;;;;;;;;;;;;;6.09;100.00;92647.97;1065684;55;20642;-86
2020/12/24 00:14:53;;;;;;;;;;;;;;;6.17;99.83;92649.41;1063443;56;20173;-85
2020/12/24 00:15:53;;;;;;;;;;;;;;;6.14;100.00;92650.94;1065600;55;20165;-86
2020/12/24 00:16:53;;;;;;;;;;;;;;;6.18;100.00;92650.91;1067743;55;20153;-87
2020/12/24 00:17:54;;;;;;;;;;;;;;;6.15;99.90;92655.13;1063499;56;20146;-86
2020/12/24 00:18:54;;;;;;;;;;;;;;;6.19;100.00;92658.47;1065584;55;20168;-86
2020/12/24 00:19:55;;;;;;;;;;;;;;;6.22;99.71;92667.53;1065640;55;20671;-84
2020/12/24 00:20:56;;;;;;;;;;;;;;;6.09;100.00;92677.91;1063407;56;21185;-84
2020/12/24 00:21:56;;;;;;;;;;;;;;;6.12;100.00;92671.06;1063487;55;20182;-85
2020/12/24 00:22:57;;;;;;;;;;;;;;;6.14;100.00;92672.16;1065680;55;20185;-86
2020/12/24 00:24:00;;;;;;;;;;;;;;;6.10;100.00;92676.00;1065610;55;20270;-87
2020/12/24 00:25:01;;;;;;;;;;;;;;;6.10;100.00;92670.72;1065733;55;20192;-88
2020/12/24 00:26:04;;;;;;;;;;;;;;;6.17;100.00;92671.38;1063375;56;20177;-86
2020/12/24 00:27:05;;;;;;;;;;;;;;;6.18;99.54;92666.81;1063629;55;20189;-86
2020/12/24 00:28:07;;;;;;;;;;;;;;;6.15;98.86;92668.37;1065628;55;20200;-85
2020/12/24 00:29:09;;;;;;;;;;;;;;;6.11;98.30;92665.03;1065903;55;20164;-86
2020/12/24 00:30:11;;;;;;;;;;;;;;;6.08;100.00;92657.09;1066079;55;20192;-87
2020/12/24 00:31:12;;;;;;;;;;;;;;;6.22;99.91;92665.62;1066055;55;20240;-85
2020/12/24 00:32:14;;;;;;;;;;;;;;;6.19;98.13;92670.97;1063833;55;20169;-85
2020/12/24 00:33:19;;;;;;;;;;;;;;;6.12;98.65;92676.37;1062152;55;20608;-85
2020/12/24 00:34:20;;;;;;;;;;;;;;;6.08;100.00;92673.75;1066123;55;20191;-84
2020/12/24 00:35:21;;;;;;;;;;;;;;;6.13;100.00;92669.91;1067994;55;20150;-85
2020/12/24 00:36:23;;;;;;;;;;;;;;;6.13;98.34;92660.06;1068076;55;20157;-85
2020/12/24 00:37:26;;;;;;;;;;;;;;;6.08;98.23;92655.19;1067954;55;20255;-85
2020/12/24 00:38:28;;;;;;;;;;;;;;;6.09;98.74;92650.62;1065953;55;20251;-86
2020/12/24 00:39:28;;;;;;;;;;;;;;;6.10;97.65;92660.84;1068228;55;20257;-87
2020/12/24 00:40:29;;;;;;;;;;;;;;;6.03;98.65;92656.38;1065932;55;20719;-85
2020/12/24 00:41:29;;;;;;;;;;;;;;;5.97;99.91;92652.69;1063861;55;20158;-86
2020/12/24 00:42:30;;;;;;;;;;;;;;;6.02;100.00;92638.97;1068007;55;20165;-86
2020/12/24 00:43:30;;;;;;;;;;;;;;;6.04;99.64;92641.97;1070312;55;20200;-84
2020/12/24 00:44:31;;;;;;;;;;;;;;;6.03;98.60;92645.03;1070565;55;20157;-87
2020/12/24 00:45:31;;;;;;;;;;;;;;;6.01;98.75;92642.00;1068093;55;20277;-86
2020/12/24 00:46:32;;;;;;;;;;;;;;;5.95;99.05;92656.88;1066066;55;20166;-85
2020/12/24 00:47:32;;;;;;;;;;;;;;;6.03;99.64;92651.09;1065880;55;20243;-86
2020/12/24 00:48:33;;;;;;;;;;;;;;;5.93;99.69;92640.63;1063632;55;20173;-85
2020/12/24 00:49:33;;;;;;;;;;;;;;;5.86;100.00;92645.97;1063792;55;20182;-85
2020/12/24 00:50:34;;;;;;;;;;;;;;;5.89;100.00;92651.22;1063788;55;20186;-87
2020/12/24 00:51:35;;;;;;;;;;;;;;;5.87;100.00;92655.41;1063809;55;20153;-86
2020/12/24 00:52:35;;;;;;;;;;;;;;;5.87;100.00;92650.84;1068072;55;20157;-85
2020/12/24 00:53:38;;;;;;;;;;;;;;;5.93;100.00;92651.22;1068072;55;20233;-85
2020/12/24 00:54:38;;;;;;;;;;;;;;;5.96;100.00;92653.06;1065837;55;20189;-86
2020/12/24 00:55:39;;;;;;;;;;;;;;;5.92;100.00;92658.41;1065912;55;20158;-85
2020/12/24 00:56:39;;;;;;;;;;;;;;;5.92;100.00;92657.66;1063697;55;20614;-84
2020/12/24 00:57:41;;;;;;;;;;;;;;;5.99;99.16;92644.31;1065987;55;20188;-86
2020/12/24 00:58:42;;;;;;;;;;;;;;;6.00;97.15;92649.22;1065994;55;21083;-87
2020/12/24 00:59:42;;;;;;;;;;;;;;;5.85;98.56;92660.37;1063618;55;20162;-85
2020/12/24 01:00:43;;;;;;;;;;;;;;;5.90;98.52;92654.63;1065870;55;20174;-84
2020/12/24 01:01:43;;;;;;;;;;;;;;;5.86;98.04;92632.69;1063650;55;20170;-85
2020/12/24 01:02:44;;;;;;;;;;;;;;;5.78;97.45;92656.62;1065968;55;20156;-88
2020/12/24 01:03:44;;;;;;;;;;;;;;;5.75;95.74;92654.03;1067807;55;20161;-85
2020/12/24 01:04:46;;;;;;;;;;;;;;;5.75;94.88;92657.44;1068139;55;20641;-85
2020/12/24 01:05:46;;;;;;;;;;;;;;;5.63;95.85;92671.22;1068017;55;20180;-85
2020/12/24 01:06:47;;;;;;;;;;;;;;;5.52;97.69;92676.59;1066005;55;20172;-85
2020/12/24 01:07:47;;;;;;;;;;;;;;;5.55;97.27;92683.03;1065959;55;20181;-86
2020/12/24 01:08:51;;;;;;;;;;;;;;;5.47;99.22;92679.69;1063744;55;20177;-86
2020/12/24 01:09:51;;;;;;;;;;;;;;;5.37;97.81;92707.06;1063846;55;20563;-85
2020/12/24 01:10:53;;;;;;;;;;;;;;;5.26;94.48;92703.72;1061615;56;20232;-85
2020/12/24 01:11:53;;;;;;;;;;;;;;;5.11;96.14;92705.75;1061687;55;20572;-85
2020/12/24 01:12:54;;;;;;;;;;;;;;;5.07;96.98;92707.66;1063783;55;20177;-85
2020/12/24 01:13:55;;;;;;;;;;;;;;;5.00;95.02;92705.06;1065846;55;20150;-85
2020/12/24 01:14:55;;;;;;;;;;;;;;;5.01;97.58;92709.25;1063708;55;20657;-84
2020/12/24 01:15:56;;;;;;;;;;;;;;;4.97;96.44;92711.91;1061559;56;20177;-87
2020/12/24 01:16:58;;;;;;;;;;;;;;;4.91;98.82;92718.00;1063576;55;20188;-87
2020/12/24 01:17:59;;;;;;;;;;;;;;;4.80;97.18;92710.12;1068133;55;20169;-86
2020/12/24 01:19:00;;;;;;;;;;;;;;;4.71;97.20;92704.53;1066002;55;20279;-85
2020/12/24 01:20:01;;;;;;;;;;;;;;;4.72;99.36;92700.72;1066006;55;20172;-85
2020/12/24 01:21:01;;;;;;;;;;;;;;;4.74;99.28;92693.16;1065876;55;20184;-85
2020/12/24 01:22:02;;;;;;;;;;;;;;;4.65;98.88;92693.56;1068011;55;20183;-85
2020/12/24 01:23:04;;;;;;;;;;;;;;;4.57;96.41;92684.19;1065861;55;20642;-85
2020/12/24 01:24:05;;;;;;;;;;;;;;;4.54;95.47;92683.06;1061792;55;20268;-84
2020/12/24 01:25:06;;;;;;;;;;;;;;;4.53;96.79;92675.53;1063845;55;20271;-85
2020/12/24 01:26:07;;;;;;;;;;;;;;;4.39;94.92;92676.37;1061698;56;20236;-86
2020/12/24 01:27:08;;;;;;;;;;;;;;;4.34;95.79;92670.72;1061594;55;20264;-86
2020/12/24 01:28:09;;;;;;;;;;;;;;;4.29;95.75;92671.88;1063894;55;20611;-86
2020/12/24 01:29:09;;;;;;;;;;;;;;;4.22;96.74;92683.25;1068136;55;20192;-86
2020/12/24 01:30:10;;;;;;;;;;;;;;;4.14;97.83;92688.97;1065869;55;20205;-86
2020/12/24 01:31:10;;;;;;;;;;;;;;;4.10;95.98;92691.63;1065953;55;20711;-87
2020/12/24 01:32:11;;;;;;;;;;;;;;;4.06;95.28;92680.31;1065923;55;20172;-83
2020/12/24 01:33:12;;;;;;;;;;;;;;;3.92;96.69;92681.12;1065935;55;20181;-85
2020/12/24 01:34:14;;;;;;;;;;;;;;;3.89;95.44;92678.47;1066030;55;20648;-85
2020/12/24 01:35:17;;;;;;;;;;;;;;;3.91;96.36;92689.44;1066171;55;20213;-85
2020/12/24 01:36:20;;;;;;;;;;;;;;;3.81;96.58;92684.94;1066029;55;20273;-87
2020/12/24 01:37:21;;;;;;;;;;;;;;;3.82;98.46;92686.44;1068070;55;20188;-86
2020/12/24 01:38:23;;;;;;;;;;;;;;;3.95;99.87;92683.00;1068164;55;20160;-85
2020/12/24 01:39:23;;;;;;;;;;;;;;;3.88;98.26;92676.97;1065943;55;20571;-85
2020/12/24 01:40:28;;;;;;;;;;;;;;;3.82;98.14;92670.56;1066042;55;20161;-87
2020/12/24 01:41:29;;;;;;;;;;;;;;;3.86;99.19;92666.78;1066568;55;20157;-85
2020/12/24 01:42:30;;;;;;;;;;;;;;;3.77;98.32;92661.91;1068333;55;20157;-85
2020/12/24 01:43:30;;;;;;;;;;;;;;;3.74;98.46;92662.69;1063993;55;20182;-86
2020/12/24 01:44:31;;;;;;;;;;;;;;;3.78;99.28;92676.63;1063877;55;20169;-84
2020/12/24 01:45:33;;;;;;;;;;;;;;;3.73;100.00;92684.19;1066133;55;20166;-86
2020/12/24 01:46:33;;;;;;;;;;;;;;;3.74;99.59;92664.56;1068416;55;20188;-85
2020/12/24 01:47:34;;;;;;;;;;;;;;;3.83;99.46;92669.44;1066003;55;20185;-86
2020/12/24 01:48:37;;;;;;;;;;;;;;;3.78;99.04;92671.34;1066358;55;20157;-86
2020/12/24 01:49:39;;;;;;;;;;;;;;;3.72;99.64;92654.37;1066075;55;20272;-85
2020/12/24 01:50:40;;;;;;;;;;;;;;;3.73;100.00;92642.69;1066218;55;20263;-85
2020/12/24 01:51:45;;;;;;;;;;;;;;;3.71;97.34;92631.72;1061895;56;20190;-86
2020/12/24 01:52:48;;;;;;;;;;;;;;;3.73;96.42;92637.38;1064458;55;20194;-86
2020/12/24 01:53:49;;;;;;;;;;;;;;;3.73;97.84;92641.91;1064049;55;20627;-87
2020/12/24 01:54:49;;;;;;;;;;;;;;;3.81;96.50;92651.31;1064007;55;20154;-85
2020/12/24 01:55:50;;;;;;;;;;;;;;;3.85;97.88;92635.44;1065964;55;20177;-84
2020/12/24 01:56:51;;;;;;;;;;;;;;;3.78;98.09;92638.87;1063689;55;20184;-86
2020/12/24 01:57:52;;;;;;;;;;;;;;;3.77;97.47;92634.72;1066026;55;20199;-84
2020/12/24 01:58:53;;;;;;;;;;;;;;;3.67;98.73;92632.88;1066113;55;20637;-87
2020/12/24 01:59:54;;;;;;;;;;;;;;;3.71;96.92;92641.53;1065965;55;20248;-85
2020/12/24 02:00:55;;;;;;;;;;;;;;;3.68;96.95;92639.66;1065952;55;20209;-85
2020/12/24 02:01:55;;;;;;;;;;;;;;;3.72;98.63;92641.16;1066076;55;20326;-84
2020/12/24 02:02:57;;;;;;;;;;;;;;;3.68;99.18;92658.16;1061809;55;20177;-86
2020/12/24 02:03:57;;;;;;;;;;;;;;;3.66;99.97;92650.62;1064048;55;20158;-87
2020/12/24 02:04:58;;;;;;;;;;;;;;;3.72;96.98;92656.25;1061766;56;20154;-87
2020/12/24 02:05:58;;;;;;;;;;;;;;;3.72;98.53;92662.28;1064014;55;20177;-85
2020/12/24 02:06:59;;;;;;;;;;;;;;;3.71;98.48;92660.03;1066240;55;20323;-82
2020/12/24 02:07:59;;;;;;;;;;;;;;;3.72;97.77;92659.66;1063983;55;20165;-87
2020/12/24 02:09:01;;;;;;;;;;;;;;;3.73;96.77;92639.25;1063993;55;20658;-87
2020/12/24 02:10:02;;;;;;;;;;;;;;;3.76;97.68;92643.78;1064006;55;20193;-87
2020/12/24 02:11:03;;;;;;;;;;;;;;;3.71;98.25;92644.94;1063917;55;20278;-87
2020/12/24 02:12:03;;;;;;;;;;;;;;;3.72;100.00;92638.50;1064025;55;20161;-86
2020/12/24 02:13:05;;;;;;;;;;;;;;;3.75;100.00;92645.69;1068128;55;20256;-85
2020/12/24 02:14:05;;;;;;;;;;;;;;;3.71;97.50;92650.22;1067880;55;20165;-86
2020/12/24 02:15:06;;;;;;;;;;;;;;;3.74;95.12;92636.25;1063748;55;20200;-86
2020/12/24 02:16:07;;;;;;;;;;;;;;;3.64;98.07;92646.84;1065904;55;20687;-87
2020/12/24 02:17:08;;;;;;;;;;;;;;;3.71;97.93;92652.87;1066022;55;20153;-85
2020/12/24 02:18:08;;;;;;;;;;;;;;;3.54;99.09;92648.38;1061598;56;20173;-82
2020/12/24 02:19:09;;;;;;;;;;;;;;;3.68;96.07;92652.87;1063848;55;20614;-83
2020/12/24 02:20:09;;;;;;;;;;;;;;;3.66;98.14;92647.97;1065841;55;20179;-84
2020/12/24 02:21:10;;;;;;;;;;;;;;;3.62;97.93;92641.94;1063799;55;20247;-83
2020/12/24 02:22:12;;;;;;;;;;;;;;;3.61;99.17;92631.78;1063704;55;20284;-85
2020/12/24 02:23:12;;;;;;;;;;;;;;;3.64;100.00;92637.03;1063683;55;20173;-86
2020/12/24 02:24:13;;;;;;;;;;;;;;;3.65;99.17;92635.91;1065903;55;20153;-86
2020/12/24 02:25:13;;;;;;;;;;;;;;;3.63;99.66;92638.16;1061689;56;20158;-87
2020/12/24 02:26:14;;;;;;;;;;;;;;;3.52;99.41;92637.47;1063594;55;20679;-85
2020/12/24 02:27:14;;;;;;;;;;;;;;;3.63;100.00;92648.72;1065853;55;20184;-88
2020/12/24 02:28:16;;;;;;;;;;;;;;;3.55;100.00;92652.53;1068061;55;20316;-86
2020/12/24 02:29:17;;;;;;;;;;;;;;;3.59;100.00;92650.62;1065939;55;20312;-86
2020/12/24 02:30:19;;;;;;;;;;;;;;;3.58;98.62;92659.69;1065821;55;20154;-87
2020/12/24 02:31:19;;;;;;;;;;;;;;;3.53;98.72;92654.81;1063652;55;20255;-87
2020/12/24 02:32:20;;;;;;;;;;;;;;;3.49;100.00;92662.75;1063767;55;20251;-87
2020/12/24 02:33:20;;;;;;;;;;;;;;;3.44;100.00;92651.81;1063656;55;20186;-85
2020/12/24 02:34:20;;;;;;;;;;;;;;;3.37;100.00;92651.81;1063522;55;20162;-86
2020/12/24 02:35:21;;;;;;;;;;;;;;;3.33;100.00;92641.25;1067957;55;20200;-88
2020/12/24 02:36:22;;;;;;;;;;;;;;;3.49;99.88;92641.59;1067863;55;20192;-87
2020/12/24 02:37:24;;;;;;;;;;;;;;;3.44;99.96;92635.97;1065651;55;20184;-86
2020/12/24 02:38:25;;;;;;;;;;;;;;;3.47;99.10;92622.75;1065696;55;20266;-86
2020/12/24 02:39:25;;;;;;;;;;;;;;;3.44;100.00;92609.56;1065605;55;20265;-84
2020/12/24 02:40:26;;;;;;;;;;;;;;;3.51;100.00;92622.72;1067951;55;20649;-86
2020/12/24 02:41:29;;;;;;;;;;;;;;;3.65;97.87;92632.50;1065866;55;20169;-86
2020/12/24 02:42:30;;;;;;;;;;;;;;;3.49;98.99;92633.69;1065801;55;20150;-86
2020/12/24 02:43:31;;;;;;;;;;;;;;;3.47;99.44;92630.69;1063592;55;20162;-86
2020/12/24 02:44:31;;;;;;;;;;;;;;;3.41;100.00;92629.56;1065767;55;20582;-90
2020/12/24 02:45:33;;;;;;;;;;;;;;;3.42;100.00;92619.72;1065831;55;20258;-86
2020/12/24 02:46:36;;;;;;;;;;;;;;;3.50;99.94;92613.28;1063742;55;20194;-85
2020/12/24 02:47:37;;;;;;;;;;;;;;;3.51;98.88;92615.56;1065838;55;20192;-88
2020/12/24 02:48:38;;;;;;;;;;;;;;;3.59;99.71;92626.09;1063757;55;20166;-85
2020/12/24 02:49:39;;;;;;;;;;;;;;;3.60;99.14;92625.75;1063812;55;20162;-86
2020/12/24 02:50:40;;;;;;;;;;;;;;;3.48;99.95;92621.63;1063623;55;20158;-88
2020/12/24 02:51:40;;;;;;;;;;;;;;;3.52;100.00;92622.34;1061226;56;20166;-86
2020/12/24 02:52:41;;;;;;;;;;;;;;;3.58;99.24;92628.00;1063751;55;20158;-85
2020/12/24 02:53:41;;;;;;;;;;;;;;;3.39;98.91;92628.44;1063623;55;20263;-86
2020/12/24 02:54:42;;;;;;;;;;;;;;;3.40;98.35;92627.31;1063747;55;20185;-85
2020/12/24 02:55:44;;;;;;;;;;;;;;;3.31;98.40;92626.94;1065702;55;20161;-86
2020/12/24 02:56:44;;;;;;;;;;;;;;;3.39;98.76;92628.44;1068056;55;20172;-86
2020/12/24 02:57:45;;;;;;;;;;;;;;;3.39;99.91;92615.97;1067700;55;20168;-85
2020/12/24 02:58:45;;;;;;;;;;;;;;;3.37;99.93;92612.97;1065675;55;20165;-89
2020/12/24 02:59:45;;;;;;;;;;;;;;;3.46;100.00;92599.34;1065698;55;20295;-86
2020/12/24 03:00:47;;;;;;;;;;;;;;;3.50;100.00;92592.91;1065880;55;20309;-84
2020/12/24 03:01:48;;;;;;;;;;;;;;;3.51;100.00;92605.00;1063729;55;20330;-87
2020/12/24 03:02:49;;;;;;;;;;;;;;;3.52;100.00;92595.94;1061470;55;20192;-88
2020/12/24 03:03:49;;;;;;;;;;;;;;;3.59;100.00;92589.84;1061695;56;20138;-86
2020/12/24 03:04:50;;;;;;;;;;;;;;;3.61;100.00;92586.84;1063708;55;20263;-87
2020/12/24 03:05:51;;;;;;;;;;;;;;;3.59;99.30;92587.22;1067999;55;20188;-85
2020/12/24 03:06:51;;;;;;;;;;;;;;;3.53;99.33;92573.66;1065854;55;20157;-86
2020/12/24 03:07:52;;;;;;;;;;;;;;;3.58;99.39;92577.78;1065696;55;20623;-87
2020/12/24 03:08:52;;;;;;;;;;;;;;;3.54;99.32;92566.47;1065815;55;20169;-88
2020/12/24 03:09:54;;;;;;;;;;;;;;;3.49;99.33;92565.00;1065848;55;20162;-85
2020/12/24 03:10:54;;;;;;;;;;;;;;;3.48;97.80;92557.47;1065836;55;20728;-86
2020/12/24 03:11:55;;;;;;;;;;;;;;;3.44;98.17;92560.09;1068131;55;20243;-86
2020/12/24 03:12:55;;;;;;;;;;;;;;;3.51;97.76;92570.66;1065944;55;20969;-86
2020/12/24 03:13:56;;;;;;;;;;;;;;;3.51;97.58;92569.87;1063805;55;20166;-85
2020/12/24 03:14:56;;;;;;;;;;;;;;;3.51;98.54;92575.94;1065878;55;20658;-85
2020/12/24 03:15:58;;;;;;;;;;;;;;;3.54;97.36;92571.75;1065932;55;20246;-86
2020/12/24 03:17:00;;;;;;;;;;;;;;;3.50;97.53;92584.97;1063675;55;20185;-85
2020/12/24 03:18:01;;;;;;;;;;;;;;;3.52;97.15;92568.75;1061615;56;20177;-86
2020/12/24 03:19:05;;;;;;;;;;;;;;;3.54;97.96;92577.06;1061737;55;20290;-86
2020/12/24 03:20:07;;;;;;;;;;;;;;;3.42;97.63;92583.50;1063844;55;20181;-86
2020/12/24 03:21:09;;;;;;;;;;;;;;;3.46;97.58;92578.22;1065945;55;20176;-88
2020/12/24 03:22:10;;;;;;;;;;;;;;;3.50;96.58;92589.53;1063811;55;20161;-87
2020/12/24 03:23:10;;;;;;;;;;;;;;;3.49;97.01;92598.59;1063734;55;20192;-86
2020/12/24 03:24:11;;;;;;;;;;;;;;;3.48;97.53;92599.72;1066054;55;20246;-90
2020/12/24 03:25:11;;;;;;;;;;;;;;;3.44;98.96;92607.66;1068185;55;20235;-87
2020/12/24 03:26:13;;;;;;;;;;;;;;;3.43;99.96;92611.44;1065877;55;20295;-86
2020/12/24 03:27:14;;;;;;;;;;;;;;;3.42;99.86;92611.81;1063732;55;20169;-87
2020/12/24 03:28:16;;;;;;;;;;;;;;;3.44;100.00;92609.56;1063747;55;20274;-85
2020/12/24 03:29:16;;;;;;;;;;;;;;;3.45;99.77;92603.88;1063852;55;20246;-86
2020/12/24 03:30:17;;;;;;;;;;;;;;;3.34;100.00;92597.16;1068121;55;20173;-86
2020/12/24 03:31:22;;;;;;;;;;;;;;;3.34;100.00;92592.59;1065873;55;20157;-85
2020/12/24 03:32:22;;;;;;;;;;;;;;;3.31;100.00;92577.53;1065927;55;20157;-85
2020/12/24 03:33:23;;;;;;;;;;;;;;;3.39;100.00;92572.97;1065957;55;20724;-85
2020/12/24 03:34:23;;;;;;;;;;;;;;;3.42;100.00;92567.66;1067981;55;20309;-85
2020/12/24 03:35:24;;;;;;;;;;;;;;;3.33;100.00;92564.66;1067979;55;20157;-85
2020/12/24 03:36:26;;;;;;;;;;;;;;;3.35;100.00;92559.78;1065980;55;20160;-86
2020/12/24 03:37:26;;;;;;;;;;;;;;;3.45;100.00;92556.31;1066000;55;20153;-86
2020/12/24 03:38:27;;;;;;;;;;;;;;;3.42;99.28;92551.81;1065862;55;20169;-85
2020/12/24 03:39:27;;;;;;;;;;;;;;;3.42;98.78;92541.22;1063771;56;20154;-85
2020/12/24 03:40:29;;;;;;;;;;;;;;;3.42;100.00;92551.81;1061645;55;20162;-87
2020/12/24 03:41:33;;;;;;;;;;;;;;;3.44;98.79;92543.50;1066005;55;20222;-86
2020/12/24 03:42:34;;;;;;;;;;;;;;;3.37;100.00;92531.06;1063815;55;20184;-85
2020/12/24 03:43:35;;;;;;;;;;;;;;;3.31;99.73;92539.78;1061603;55;20189;-86
2020/12/24 03:44:36;;;;;;;;;;;;;;;3.24;100.00;92543.94;1063645;56;20170;-86
2020/12/24 03:45:36;;;;;;;;;;;;;;;3.35;100.00;92535.25;1068211;55;20248;-87
2020/12/24 03:46:38;;;;;;;;;;;;;;;3.34;100.00;92554.87;1068151;55;21116;-85
2020/12/24 03:47:40;;;;;;;;;;;;;;;3.31;100.00;92555.63;1065840;55;20307;-86
2020/12/24 03:48:40;;;;;;;;;;;;;;;3.42;99.48;92574.81;1063690;55;20207;-85
2020/12/24 03:49:41;;;;;;;;;;;;;;;3.37;99.46;92573.34;1063834;56;20158;-86
2020/12/24 03:50:42;;;;;;;;;;;;;;;3.46;99.36;92573.69;1066113;55;20192;-88
2020/12/24 03:51:42;;;;;;;;;;;;;;;3.46;100.00;92573.69;1070203;55;20156;-87
2020/12/24 03:52:43;;;;;;;;;;;;;;;3.56;99.05;92587.22;1065876;55;20162;-86
2020/12/24 03:53:43;;;;;;;;;;;;;;;3.56;98.05;92598.56;1063702;56;20150;-87
2020/12/24 03:54:47;;;;;;;;;;;;;;;3.48;98.78;92576.69;1065821;55;20196;-86
2020/12/24 03:55:47;;;;;;;;;;;;;;;3.50;98.85;92584.97;1068101;55;20161;-87
2020/12/24 03:56:48;;;;;;;;;;;;;;;3.41;99.35;92573.31;1065691;55;20204;-86
2020/12/24 03:57:48;;;;;;;;;;;;;;;3.58;99.53;92564.56;1061576;56;20158;-87
2020/12/24 03:58:49;;;;;;;;;;;;;;;3.62;98.49;92560.03;1063603;55;20173;-85
2020/12/24 03:59:50;;;;;;;;;;;;;;;3.59;98.15;92571.38;1063625;56;20664;-87
2020/12/24 04:00:50;;;;;;;;;;;;;;;3.46;98.09;92581.59;1061632;56;20170;-85
2020/12/24 04:01:51;;;;;;;;;;;;;;;3.40;99.22;92569.94;1063741;55;20160;-84
2020/12/24 04:02:53;;;;;;;;;;;;;;;3.51;98.50;92570.66;1063826;55;20678;-84
2020/12/24 04:03:54;;;;;;;;;;;;;;;3.56;97.72;92560.81;1063957;55;20169;-85
2020/12/24 04:04:54;;;;;;;;;;;;;;;3.51;98.00;92560.09;1064139;55;20647;-85
2020/12/24 04:05:55;;;;;;;;;;;;;;;3.54;98.53;92561.19;1066121;55;20189;-85
2020/12/24 04:06:56;;;;;;;;;;;;;;;3.50;97.95;92563.09;1066348;55;20177;-83
2020/12/24 04:07:56;;;;;;;;;;;;;;;3.58;97.35;92577.03;1066256;55;21212;-84
2020/12/24 04:08:57;;;;;;;;;;;;;;;3.50;97.15;92574.41;1068508;55;20598;-83
2020/12/24 04:09:57;;;;;;;;;;;;;;;3.51;98.50;92554.03;1064115;55;20658;-84
2020/12/24 04:10:59;;;;;;;;;;;;;;;3.56;97.96;92552.88;1062110;55;20649;-84
2020/12/24 04:11:59;;;;;;;;;;;;;;;3.52;96.98;92555.56;1064211;55;20169;-86
2020/12/24 04:13:00;;;;;;;;;;;;;;;3.50;95.43;92560.47;1066368;55;20180;-82
2020/12/24 04:14:00;;;;;;;;;;;;;;;3.55;98.11;92557.41;1066272;55;20267;-84
2020/12/24 04:15:01;;;;;;;;;;;;;;;3.46;98.50;92549.16;1064054;55;20255;-84
2020/12/24 04:16:03;;;;;;;;;;;;;;;3.43;96.42;92542.75;1064308;55;20180;-83
2020/12/24 04:17:03;;;;;;;;;;;;;;;3.52;96.87;92560.84;1064916;55;21044;-84
2020/12/24 04:18:04;;;;;;;;;;;;;;;3.52;95.94;92551.03;1064097;55;20165;-84
2020/12/24 04:19:04;;;;;;;;;;;;;;;3.58;95.08;92561.94;1066306;55;20169;-84
2020/12/24 04:20:06;;;;;;;;;;;;;;;3.51;96.79;92557.44;1066338;55;20174;-82
2020/12/24 04:21:07;;;;;;;;;;;;;;;3.54;96.61;92553.28;1064058;55;20184;-83
2020/12/24 04:22:09;;;;;;;;;;;;;;;3.53;96.61;92539.31;1064186;55;20229;-84
2020/12/24 04:23:11;;;;;;;;;;;;;;;3.59;95.41;92544.19;1064203;55;20244;-83
2020/12/24 04:24:13;;;;;;;;;;;;;;;3.50;97.83;92541.97;1064076;55;20248;-84
2020/12/24 04:25:13;;;;;;;;;;;;;;;3.47;96.00;92548.78;1061884;56;20158;-83
2020/12/24 04:26:19;;;;;;;;;;;;;;;3.53;95.79;92538.56;1064182;55;20275;-85
2020/12/24 04:27:19;;;;;;;;;;;;;;;3.56;94.32;92535.16;1064060;55;20673;-85
2020/12/24 04:28:21;;;;;;;;;;;;;;;3.48;96.34;92523.13;1061897;56;20166;-83
2020/12/24 04:29:22;;;;;;;;;;;;;;;3.53;97.35;92535.91;1061837;56;20233;-85
2020/12/24 04:30:22;;;;;;;;;;;;;;;3.51;96.60;92527.59;1061871;56;20161;-83
2020/12/24 04:31:23;;;;;;;;;;;;;;;3.40;97.87;92516.34;1061909;56;20186;-84
2020/12/24 04:32:24;;;;;;;;;;;;;;;3.51;96.27;92532.91;1061789;56;20300;-83
2020/12/24 04:33:24;;;;;;;;;;;;;;;3.53;96.32;92528.00;1061838;56;20263;-84
2020/12/24 04:34:24;;;;;;;;;;;;;;;3.54;97.59;92532.13;1061725;56;20551;-84
2020/12/24 04:35:25;;;;;;;;;;;;;;;3.51;95.51;92528.38;1063871;55;20192;-83
2020/12/24 04:36:26;;;;;;;;;;;;;;;3.47;96.70;92530.28;1061736;56;20177;-83
2020/12/24 04:37:26;;;;;;;;;;;;;;;3.63;92.72;92529.81;1064020;55;20681;-82
2020/12/24 04:38:26;;;;;;;;;;;;;;;3.55;94.81;92528.34;1064321;55;20220;-87
2020/12/24 04:39:27;;;;;;;;;;;;;;;3.57;94.33;92517.41;1063939;55;20263;-87
2020/12/24 04:40:28;;;;;;;;;;;;;;;3.56;95.91;92507.97;1061802;56;20627;-86
2020/12/24 04:41:29;;;;;;;;;;;;;;;3.53;95.69;92514.78;1063779;55;20267;-86
2020/12/24 04:42:31;;;;;;;;;;;;;;;3.41;96.72;92509.94;1061643;56;20162;-86
2020/12/24 04:43:31;;;;;;;;;;;;;;;3.41;97.98;92502.00;1059609;56;20188;-87
2020/12/24 04:44:33;;;;;;;;;;;;;;;3.43;97.59;92503.13;1063937;55;20158;-86
2020/12/24 04:45:34;;;;;;;;;;;;;;;3.51;96.82;92511.75;1063810;55;20153;-86
2020/12/24 04:46:35;;;;;;;;;;;;;;;3.50;97.60;92507.63;1064041;55;20154;-85
2020/12/24 04:47:41;;;;;;;;;;;;;;;3.47;97.43;92525.00;1063650;55;20173;-83
2020/12/24 04:48:43;;;;;;;;;;;;;;;3.55;95.75;92528.34;1062034;56;21080;-84
2020/12/24 04:49:44;;;;;;;;;;;;;;;3.52;96.76;92500.06;1059646;56;20155;-83
2020/12/24 04:50:47;;;;;;;;;;;;;;;3.62;93.54;92530.97;1059684;56;20170;-86
2020/12/24 04:51:49;;;;;;;;;;;;;;;3.57;94.15;92518.16;1060031;56;20244;-84
2020/12/24 04:52:50;;;;;;;;;;;;;;;3.54;95.46;92534.78;1061859;55;20202;-85
2020/12/24 04:53:51;;;;;;;;;;;;;;;3.53;96.04;92549.13;1063907;55;20170;-84
2020/12/24 04:54:52;;;;;;;;;;;;;;;3.38;96.82;92524.69;1061803;56;20155;-84
2020/12/24 04:55:53;;;;;;;;;;;;;;;3.44;96.94;92527.66;1059537;56;20159;-85
2020/12/24 04:57:01;;;;;;;;;;;;;;;3.46;95.65;92520.09;1059741;55;20170;-83
2020/12/24 04:58:03;;;;;;;;;;;;;;;3.47;97.97;92527.66;1062034;56;20154;-83
2020/12/24 04:59:06;;;;;;;;;;;;;;;3.43;97.87;92507.66;1061892;55;20248;-85
2020/12/24 05:00:06;;;;;;;;;;;;;;;3.50;98.10;92516.28;1064204;55;20193;-83
2020/12/24 05:01:13;;;;;;;;;;;;;;;3.56;96.06;92518.53;1063909;55;20185;-83
2020/12/24 05:02:14;;;;;;;;;;;;;;;3.46;96.76;92522.72;1064083;55;20248;-83
2020/12/24 05:03:15;;;;;;;;;;;;;;;3.42;96.51;92514.81;1061672;56;20661;-86
2020/12/24 05:04:17;;;;;;;;;;;;;;;3.50;96.54;92513.66;1062010;55;20267;-85
2020/12/24 05:05:18;;;;;;;;;;;;;;;3.50;96.40;92516.28;1063856;55;20220;-86
2020/12/24 05:06:18;;;;;;;;;;;;;;;3.54;95.17;92517.03;1063838;55;20174;-85
2020/12/24 05:07:21;;;;;;;;;;;;;;;3.50;95.96;92516.28;1063878;55;20162;-85
2020/12/24 05:08:21;;;;;;;;;;;;;;;3.41;97.03;92513.31;1063853;55;20268;-87
2020/12/24 05:09:23;;;;;;;;;;;;;;;3.43;97.19;92515.59;1066013;55;20275;-87
2020/12/24 05:10:23;;;;;;;;;;;;;;;3.44;97.20;92515.19;1066043;55;20653;-87
2020/12/24 05:11:28;;;;;;;;;;;;;;;3.40;97.19;92513.72;1061650;56;20154;-85
2020/12/24 05:12:31;;;;;;;;;;;;;;;3.45;97.58;92511.41;1059983;56;20600;-83
2020/12/24 05:13:32;;;;;;;;;;;;;;;3.35;97.17;92517.50;1059810;56;20167;-83
2020/12/24 05:14:33;;;;;;;;;;;;;;;3.39;95.36;92522.78;1061557;56;20670;-85
2020/12/24 05:15:33;;;;;;;;;;;;;;;3.35;93.21;92514.13;1065919;55;20165;-84
2020/12/24 05:16:33;;;;;;;;;;;;;;;3.28;94.75;92509.59;1068323;55;20579;-83
2020/12/24 05:17:34;;;;;;;;;;;;;;;3.31;94.38;92508.09;1065441;55;20153;-84
2020/12/24 05:18:34;;;;;;;;;;;;;;;3.31;96.53;92502.81;1068003;55;20172;-83
2020/12/24 05:19:48;;;;;;;;;;;;;;;3.29;96.34;92505.81;1065907;55;20177;-84
2020/12/24 05:20:49;;;;;;;;;;;;;;;3.23;95.60;92517.94;1064680;55;20650;-84
2020/12/24 05:21:50;;;;;;;;;;;;;;;3.22;94.98;92524.34;1066078;55;20201;-84